Time;durP1;ratioP1;P1;durP2;ratioP2;P2;SDS_P1;SDS_P2;PMS_P1;PMS_P2;Temp;Humidity;BMP_temperature;BMP_pressure;BME280_temperature;BME280_humidity;BME280_pressure;Samples;Min_cycle;Max_cycle;Signal;HPM_P1;HPM_P2
2023/06/28 00:00:37;;;;;;;3.23;2.37;;;;;;;;;;5021350;28;20197;-82
2023/06/28 00:03:09;;;;;;;3.87;2.20;;;;;;;;;;5020876;28;20224;-82
2023/06/28 00:05:35;;;;;;;4.70;2.00;;;;;;;;;;5004497;28;20213;-81
2023/06/28 00:08:01;;;;;;;3.67;2.13;;;;;;;;;;5021039;28;20154;-83
2023/06/28 00:10:27;;;;;;;3.70;1.73;;;;;;;;;;5036717;28;20270;-82
2023/06/28 00:12:53;;;;;;;3.77;1.90;;;;;;;;;;5004275;28;20285;-82
2023/06/28 00:15:19;;;;;;;3.37;2.00;;;;;;;;;;5036872;28;20347;-82
2023/06/28 00:17:46;;;;;;;2.77;1.97;;;;;;;;;;5020368;28;20673;-82
2023/06/28 00:20:12;;;;;;;3.40;2.17;;;;;;;;;;5036856;28;20181;-82
2023/06/28 00:22:39;;;;;;;2.77;2.10;;;;;;;;;;5004235;28;20272;-82
2023/06/28 00:25:06;;;;;;;2.93;2.03;;;;;;;;;;5020173;28;20216;-82
2023/06/28 00:27:33;;;;;;;3.83;2.00;;;;;;;;;;5020254;28;20844;-82
2023/06/28 00:29:59;;;;;;;3.33;1.70;;;;;;;;;;5024593;28;20188;-82
2023/06/28 00:32:26;;;;;;;3.40;2.00;;;;;;;;;;5001124;28;20185;-82
2023/06/28 00:34:52;;;;;;;3.70;1.90;;;;;;;;;;5001095;28;20277;-81
2023/06/28 00:37:20;;;;;;;4.30;2.00;;;;;;;;;;5003494;28;20201;-82
2023/06/28 00:39:46;;;;;;;6.33;2.10;;;;;;;;;;5036176;28;20523;-82
2023/06/28 00:42:13;;;;;;;2.57;2.10;;;;;;;;;;5028754;28;20248;-82
2023/06/28 00:44:39;;;;;;;3.23;2.00;;;;;;;;;;5053428;28;20225;-82
2023/06/28 00:47:06;;;;;;;4.07;2.33;;;;;;;;;;5037299;28;20237;-81
2023/06/28 00:49:33;;;;;;;4.83;2.10;;;;;;;;;;5070522;28;20222;-82
2023/06/28 00:52:00;;;;;;;5.23;2.30;;;;;;;;;;5024335;28;20193;-82
2023/06/28 00:54:27;;;;;;;3.33;2.13;;;;;;;;;;5028523;28;20209;-82
2023/06/28 00:56:53;;;;;;;5.03;2.13;;;;;;;;;;5004575;28;20196;-82
2023/06/28 00:59:19;;;;;;;4.77;2.40;;;;;;;;;;5003944;28;20601;-82
2023/06/28 01:01:48;;;;;;;5.40;2.47;;;;;;;;;;5020720;28;20190;-82
2023/06/28 01:04:16;;;;;;;3.63;2.17;;;;;;;;;;5020320;28;20712;-81
2023/06/28 01:06:43;;;;;;;2.87;2.10;;;;;;;;;;5036634;28;20288;-82
2023/06/28 01:09:11;;;;;;;10.10;2.53;;;;;;;;;;5036058;28;20236;-82
2023/06/28 01:11:38;;;;;;;3.60;2.10;;;;;;;;;;5020041;28;20212;-82
2023/06/28 01:14:05;;;;;;;3.27;2.20;;;;;;;;;;5003723;28;20640;-82
2023/06/28 01:16:33;;;;;;;3.97;1.90;;;;;;;;;;5019610;28;20201;-82
2023/06/28 01:19:00;;;;;;;2.93;1.90;;;;;;;;;;5003292;28;20185;-81
2023/06/28 01:21:27;;;;;;;4.80;2.40;;;;;;;;;;5003343;28;20190;-82
2023/06/28 01:23:54;;;;;;;4.57;2.30;;;;;;;;;;5035928;28;20200;-82
2023/06/28 01:26:20;;;;;;;4.57;2.10;;;;;;;;;;5003918;28;20226;-82
2023/06/28 01:28:47;;;;;;;2.63;1.77;;;;;;;;;;5020200;28;20193;-82
2023/06/28 01:31:13;;;;;;;4.17;2.23;;;;;;;;;;5011348;28;20193;-81
2023/06/28 01:33:42;;;;;;;3.70;2.17;;;;;;;;;;5008129;28;20218;-81
2023/06/28 01:36:08;;;;;;;5.70;2.17;;;;;;;;;;5017073;28;20210;-82
2023/06/28 01:38:37;;;;;;;4.67;2.17;;;;;;;;;;5027363;28;20192;-81
2023/06/28 01:41:03;;;;;;;2.63;1.87;;;;;;;;;;5043619;28;20213;-82
2023/06/28 01:43:31;;;;;;;4.17;2.03;;;;;;;;;;5020346;28;20220;-81
2023/06/28 01:45:58;;;;;;;4.43;2.10;;;;;;;;;;5020120;28;20718;-82
2023/06/28 01:48:24;;;;;;;3.37;2.10;;;;;;;;;;5031513;28;20224;-82
2023/06/28 01:50:51;;;;;;;3.83;2.20;;;;;;;;;;5051961;28;20645;-82
2023/06/28 01:53:17;;;;;;;4.50;2.30;;;;;;;;;;5024697;28;20193;-82
2023/06/28 01:55:43;;;;;;;4.53;2.40;;;;;;;;;;5039800;28;20869;-82
2023/06/28 01:58:11;;;;;;;3.23;2.00;;;;;;;;;;5024019;28;20679;-82
2023/06/28 02:00:38;;;;;;;4.00;2.10;;;;;;;;;;5023665;28;20178;-82
2023/06/28 02:03:04;;;;;;;4.07;1.90;;;;;;;;;;5039817;28;20567;-81
2023/06/28 02:05:31;;;;;;;3.20;2.03;;;;;;;;;;5006925;28;20691;-81
2023/06/28 02:07:57;;;;;;;3.07;2.13;;;;;;;;;;5022823;28;20182;-82
2023/06/28 02:10:24;;;;;;;3.70;2.00;;;;;;;;;;5029142;28;20269;-82
2023/06/28 02:12:51;;;;;;;2.70;2.00;;;;;;;;;;5038290;28;20257;-81
2023/06/28 02:15:18;;;;;;;2.63;1.77;;;;;;;;;;5021573;28;20216;-81
2023/06/28 02:17:44;;;;;;;3.27;1.90;;;;;;;;;;5021518;28;20597;-82
2023/06/28 02:20:12;;;;;;;4.90;2.10;;;;;;;;;;5021069;28;20182;-82
2023/06/28 02:22:39;;;;;;;4.40;1.87;;;;;;;;;;5020687;28;20615;-81
2023/06/28 02:25:06;;;;;;;3.70;2.00;;;;;;;;;;5020556;28;20205;-82
2023/06/28 02:27:32;;;;;;;3.63;2.03;;;;;;;;;;5000697;28;20205;-82
2023/06/28 02:29:58;;;;;;;4.90;1.90;;;;;;;;;;5033530;28;20327;-82
2023/06/28 02:32:25;;;;;;;2.83;2.10;;;;;;;;;;5017600;28;20572;-82
2023/06/28 02:34:51;;;;;;;3.10;2.20;;;;;;;;;;5017282;28;20202;-81
2023/06/28 02:37:17;;;;;;;2.23;1.90;;;;;;;;;;5033827;28;20719;-81
2023/06/28 02:39:43;;;;;;;3.13;2.20;;;;;;;;;;5017208;28;20232;-82
2023/06/28 02:42:10;;;;;;;3.27;2.33;;;;;;;;;;5001641;28;20212;-82
2023/06/28 02:44:36;;;;;;;3.83;2.40;;;;;;;;;;5017690;28;20201;-82
2023/06/28 02:47:03;;;;;;;4.23;2.37;;;;;;;;;;5001051;28;20581;-82
2023/06/28 02:49:29;;;;;;;6.13;2.10;;;;;;;;;;5034690;28;20857;-82
2023/06/28 02:51:56;;;;;;;2.87;1.83;;;;;;;;;;5051385;28;20200;-82
2023/06/28 02:54:22;;;;;;;2.03;1.73;;;;;;;;;;5017539;28;20206;-82
2023/06/28 02:56:48;;;;;;;3.23;2.03;;;;;;;;;;5034194;28;20206;-81
2023/06/28 02:59:17;;;;;;;3.03;2.13;;;;;;;;;;5034682;28;20270;-82
2023/06/28 03:01:45;;;;;;;2.97;2.10;;;;;;;;;;5000289;28;20213;-82
2023/06/28 03:04:12;;;;;;;3.93;2.10;;;;;;;;;;4999418;28;20678;-82
2023/06/28 03:06:41;;;;;;;4.03;2.20;;;;;;;;;;5018864;28;20620;-82
2023/06/28 03:09:07;;;;;;;3.23;2.10;;;;;;;;;;5002576;28;20182;-81
2023/06/28 03:11:34;;;;;;;3.43;2.27;;;;;;;;;;5023177;28;20265;-84
2023/06/28 03:14:01;;;;;;;4.00;2.50;;;;;;;;;;4999343;28;20178;-81
2023/06/28 03:16:29;;;;;;;4.87;2.10;;;;;;;;;;5000396;28;20294;-82
2023/06/28 03:18:56;;;;;;;2.33;1.97;;;;;;;;;;4999966;28;20236;-82
2023/06/28 03:21:22;;;;;;;4.10;2.10;;;;;;;;;;5001905;28;20187;-82
2023/06/28 03:23:48;;;;;;;2.30;1.70;;;;;;;;;;5001687;28;20297;-84
2023/06/28 03:26:15;;;;;;;3.60;2.00;;;;;;;;;;5027941;28;20210;-82
2023/06/28 03:28:41;;;;;;;5.03;2.20;;;;;;;;;;5021441;28;20182;-82
2023/06/28 03:31:08;;;;;;;4.13;2.30;;;;;;;;;;5035707;28;20249;-81
2023/06/28 03:33:34;;;;;;;4.20;2.03;;;;;;;;;;5004560;28;20167;-82
2023/06/28 03:36:01;;;;;;;2.90;2.13;;;;;;;;;;5036593;28;20293;-82
2023/06/28 03:38:27;;;;;;;4.67;2.00;;;;;;;;;;5029893;28;20186;-80
2023/06/28 03:40:54;;;;;;;2.43;1.90;;;;;;;;;;5036683;28;20181;-82
2023/06/28 03:43:20;;;;;;;4.90;2.17;;;;;;;;;;5019799;28;20641;-82
2023/06/28 03:45:46;;;;;;;4.40;2.17;;;;;;;;;;5017315;28;20704;-82
2023/06/28 03:48:12;;;;;;;3.37;2.10;;;;;;;;;;5005297;28;20232;-82
2023/06/28 03:50:38;;;;;;;3.40;2.30;;;;;;;;;;5021195;28;20182;-82
2023/06/28 03:53:04;;;;;;;3.47;2.13;;;;;;;;;;5037808;28;20224;-82
2023/06/28 03:55:31;;;;;;;4.20;2.50;;;;;;;;;;5021381;28;20237;-82
2023/06/28 03:57:57;;;;;;;4.60;2.50;;;;;;;;;;5021823;28;20676;-82
2023/06/28 04:00:23;;;;;;;4.27;2.47;;;;;;;;;;5021121;28;20669;-82
2023/06/28 04:02:49;;;;;;;3.60;2.33;;;;;;;;;;5038145;28;20197;-82
2023/06/28 04:05:15;;;;;;;4.57;2.23;;;;;;;;;;5004952;28;20198;-82
2023/06/28 04:07:42;;;;;;;4.47;2.60;;;;;;;;;;5021680;28;20213;-81
2023/06/28 04:10:08;;;;;;;3.67;2.53;;;;;;;;;;5020498;28;20185;-81
2023/06/28 04:12:34;;;;;;;4.97;2.37;;;;;;;;;;5037995;28;20633;-81
2023/06/28 04:15:01;;;;;;;5.43;2.20;;;;;;;;;;5038774;28;20691;-82
2023/06/28 04:17:27;;;;;;;4.43;2.40;;;;;;;;;;5054813;28;20668;-82
2023/06/28 04:19:53;;;;;;;3.80;2.37;;;;;;;;;;5001031;28;20190;-82
2023/06/28 04:22:20;;;;;;;4.13;2.13;;;;;;;;;;5037684;28;20343;-82
2023/06/28 04:24:46;;;;;;;3.83;2.23;;;;;;;;;;5018404;28;20301;-82
2023/06/28 04:27:12;;;;;;;3.53;2.20;;;;;;;;;;5002070;28;20221;-81
2023/06/28 04:29:38;;;;;;;4.63;2.17;;;;;;;;;;5001746;28;20546;-82
2023/06/28 04:32:21;;;;;;;3.27;2.27;;;;;;;;;;4987108;28;20670;-73
2023/06/28 04:34:47;;;;;;;3.80;2.27;;;;;;;;;;5035598;28;20579;-73
2023/06/28 04:37:13;;;;;;;3.80;2.60;;;;;;;;;;5051525;28;20178;-73
2023/06/28 04:39:40;;;;;;;4.37;2.37;;;;;;;;;;5029960;28;20253;-74
2023/06/28 04:42:06;;;;;;;5.00;2.20;;;;;;;;;;5049023;28;20573;-74
2023/06/28 04:44:36;;;;;;;5.40;2.30;;;;;;;;;;5048631;28;20197;-74
2023/06/28 04:47:03;;;;;;;4.40;2.47;;;;;;;;;;5029804;28;20209;-74
2023/06/28 04:49:29;;;;;;;2.67;2.33;;;;;;;;;;5031121;28;20181;-72
2023/06/28 04:51:56;;;;;;;5.30;2.50;;;;;;;;;;5051774;28;20182;-73
2023/06/28 04:54:22;;;;;;;3.10;2.20;;;;;;;;;;5043585;28;20242;-74
2023/06/28 04:56:48;;;;;;;4.53;2.20;;;;;;;;;;5028218;28;20174;-74
2023/06/28 04:59:14;;;;;;;2.93;2.17;;;;;;;;;;5014815;28;20178;-74
2023/06/28 05:01:41;;;;;;;5.27;2.30;;;;;;;;;;5047723;28;20192;-72
2023/06/28 05:04:07;;;;;;;2.80;2.23;;;;;;;;;;5044040;28;20653;-72
2023/06/28 05:06:35;;;;;;;3.77;2.60;;;;;;;;;;5051523;28;20292;-73
2023/06/28 05:09:02;;;;;;;3.67;2.53;;;;;;;;;;5047990;28;20281;-73
2023/06/28 05:11:28;;;;;;;5.43;2.60;;;;;;;;;;5049588;28;20185;-74
2023/06/28 05:13:54;;;;;;;3.10;2.50;;;;;;;;;;5029779;28;20269;-74
2023/06/28 05:16:20;;;;;;;5.53;2.67;;;;;;;;;;5028763;28;20229;-71
2023/06/28 05:18:46;;;;;;;3.80;2.80;;;;;;;;;;5047004;28;20661;-75
2023/06/28 05:21:12;;;;;;;5.30;2.73;;;;;;;;;;5047538;28;20653;-74
2023/06/28 05:23:39;;;;;;;3.63;2.60;;;;;;;;;;5032787;28;20190;-80
2023/06/28 05:26:05;;;;;;;4.07;2.40;;;;;;;;;;5034944;28;20315;-73
2023/06/28 05:28:31;;;;;;;4.93;3.20;;;;;;;;;;5049009;28;20185;-73
2023/06/28 05:30:57;;;;;;;3.43;2.80;;;;;;;;;;5045387;28;20193;-73
2023/06/28 05:33:23;;;;;;;5.57;2.70;;;;;;;;;;5034089;28;20518;-73
2023/06/28 05:35:49;;;;;;;3.97;2.73;;;;;;;;;;5047018;28;20741;-74
2023/06/28 05:38:15;;;;;;;3.47;2.37;;;;;;;;;;5044726;28;20213;-73
2023/06/28 05:40:42;;;;;;;6.43;2.60;;;;;;;;;;5044812;28;20185;-74
2023/06/28 05:43:08;;;;;;;5.70;2.60;;;;;;;;;;5047907;28;20186;-74
2023/06/28 05:45:34;;;;;;;6.83;2.50;;;;;;;;;;5048375;28;20301;-73
2023/06/28 05:48:00;;;;;;;3.30;2.40;;;;;;;;;;5031192;28;20180;-73
2023/06/28 05:50:27;;;;;;;3.53;2.57;;;;;;;;;;5047692;28;20261;-73
2023/06/28 05:52:53;;;;;;;4.67;2.63;;;;;;;;;;5049026;28;20664;-73
2023/06/28 05:55:19;;;;;;;4.07;2.60;;;;;;;;;;5046379;28;20303;-73
2023/06/28 05:57:45;;;;;;;7.33;2.77;;;;;;;;;;5048053;28;20174;-72
2023/06/28 06:00:12;;;;;;;5.63;2.60;;;;;;;;;;5044964;28;20350;-73
2023/06/28 06:02:38;;;;;;;3.60;2.43;;;;;;;;;;5048999;28;20178;-72
2023/06/28 06:05:04;;;;;;;3.63;2.20;;;;;;;;;;5049427;28;20202;-73
2023/06/28 06:07:34;;;;;;;4.70;2.40;;;;;;;;;;5051408;28;20267;-72
2023/06/28 06:10:00;;;;;;;3.33;2.10;;;;;;;;;;5048975;28;20200;-73
2023/06/28 06:12:26;;;;;;;4.00;2.60;;;;;;;;;;5048801;28;20590;-73
2023/06/28 06:14:52;;;;;;;4.83;2.50;;;;;;;;;;5031241;28;20206;-73
2023/06/28 06:17:18;;;;;;;4.07;2.17;;;;;;;;;;5040979;28;20182;-73
2023/06/28 06:19:45;;;;;;;2.90;2.17;;;;;;;;;;5050324;28;20532;-73
2023/06/28 06:22:11;;;;;;;5.60;2.23;;;;;;;;;;5046981;28;20217;-74
2023/06/28 06:24:37;;;;;;;5.17;2.40;;;;;;;;;;5016476;28;20224;-74
2023/06/28 06:27:04;;;;;;;4.30;2.40;;;;;;;;;;5049800;28;20209;-73
2023/06/28 06:29:30;;;;;;;3.93;2.57;;;;;;;;;;5046215;28;20195;-74
2023/06/28 06:31:56;;;;;;;8.27;2.50;;;;;;;;;;5050157;28;20277;-73
2023/06/28 06:34:22;;;;;;;2.73;2.20;;;;;;;;;;5049711;28;20197;-73
2023/06/28 06:36:49;;;;;;;4.40;1.90;;;;;;;;;;5032306;28;20178;-73
2023/06/28 06:39:15;;;;;;;5.70;2.30;;;;;;;;;;5048845;28;20189;-74
2023/06/28 06:41:41;;;;;;;3.47;2.43;;;;;;;;;;5053173;28;20189;-74
2023/06/28 06:44:10;;;;;;;4.20;2.20;;;;;;;;;;5030669;28;20193;-74
2023/06/28 06:46:36;;;;;;;3.50;2.20;;;;;;;;;;5034805;28;20216;-74
2023/06/28 06:49:03;;;;;;;4.27;2.20;;;;;;;;;;5052061;28;20827;-74
2023/06/28 06:51:29;;;;;;;5.00;2.30;;;;;;;;;;5053244;28;20197;-73
2023/06/28 06:53:55;;;;;;;10.87;2.50;;;;;;;;;;5046778;28;20597;-73
2023/06/28 06:56:22;;;;;;;5.20;2.30;;;;;;;;;;5052821;28;20296;-73
2023/06/28 06:58:48;;;;;;;4.27;2.00;;;;;;;;;;5053067;28;20609;-74
2023/06/28 07:01:14;;;;;;;5.80;2.47;;;;;;;;;;5053203;28;20192;-74
2023/06/28 07:03:40;;;;;;;4.00;2.13;;;;;;;;;;5036003;28;20265;-74
2023/06/28 07:06:07;;;;;;;4.83;2.13;;;;;;;;;;5053390;28;20214;-74
2023/06/28 07:08:34;;;;;;;4.93;2.10;;;;;;;;;;5051861;28;20205;-74
2023/06/28 07:11:00;;;;;;;7.80;2.40;;;;;;;;;;5053724;28;20189;-74
2023/06/28 07:13:26;;;;;;;4.33;2.30;;;;;;;;;;5054121;28;20274;-74
2023/06/28 07:15:52;;;;;;;4.93;2.30;;;;;;;;;;5054048;28;20216;-74
2023/06/28 07:18:18;;;;;;;5.03;2.20;;;;;;;;;;5019980;28;20626;-74
2023/06/28 07:20:44;;;;;;;4.37;2.03;;;;;;;;;;5051286;28;20190;-74
2023/06/28 07:23:11;;;;;;;6.03;2.27;;;;;;;;;;5053082;28;20182;-74
2023/06/28 07:25:38;;;;;;;3.17;2.10;;;;;;;;;;5050940;28;20739;-74
2023/06/28 07:28:05;;;;;;;6.23;2.43;;;;;;;;;;5053708;28;20227;-73
2023/06/28 07:30:51;;;;;;;4.20;2.30;;;;;;;;;;5069092;28;20189;-73
2023/06/28 07:33:17;;;;;;;3.93;2.17;;;;;;;;;;5052847;28;20250;-73
2023/06/28 07:35:43;;;;;;;4.07;2.10;;;;;;;;;;5053628;28;20185;-74
2023/06/28 07:38:09;;;;;;;3.13;2.10;;;;;;;;;;5042221;28;20181;-74
2023/06/28 07:40:35;;;;;;;4.77;2.20;;;;;;;;;;5052645;28;20178;-74
2023/06/28 07:43:02;;;;;;;3.97;2.30;;;;;;;;;;5053844;28;20227;-74
2023/06/28 07:45:29;;;;;;;4.47;2.30;;;;;;;;;;5035502;28;20677;-73
2023/06/28 07:47:55;;;;;;;5.30;2.17;;;;;;;;;;5053418;28;20209;-74
2023/06/28 07:50:22;;;;;;;4.40;2.00;;;;;;;;;;5052918;28;20176;-74
2023/06/28 07:52:48;;;;;;;3.20;1.80;;;;;;;;;;5044388;28;20209;-74
2023/06/28 07:55:14;;;;;;;5.67;2.30;;;;;;;;;;5052774;28;20712;-74
2023/06/28 07:57:40;;;;;;;3.30;2.20;;;;;;;;;;5051928;28;20276;-74
2023/06/28 08:00:07;;;;;;;4.07;2.23;;;;;;;;;;5052850;28;20324;-74
2023/06/28 08:02:33;;;;;;;5.03;2.37;;;;;;;;;;5036583;28;20221;-73
2023/06/28 08:04:59;;;;;;;7.20;2.20;;;;;;;;;;5054286;28;20212;-74
2023/06/28 08:07:25;;;;;;;4.17;2.10;;;;;;;;;;5052892;28;20229;-73
2023/06/28 08:09:51;;;;;;;4.10;2.10;;;;;;;;;;5051615;28;20210;-74
2023/06/28 08:12:18;;;;;;;4.83;2.07;;;;;;;;;;5043358;28;20494;-74
2023/06/28 08:14:44;;;;;;;6.30;2.10;;;;;;;;;;5060142;28;20244;-74
2023/06/28 08:17:10;;;;;;;3.43;1.83;;;;;;;;;;5051724;28;20714;-74
2023/06/28 08:19:36;;;;;;;3.77;1.90;;;;;;;;;;5051753;28;20185;-73
2023/06/28 08:22:03;;;;;;;5.07;2.20;;;;;;;;;;5036825;28;20181;-74
2023/06/28 08:24:30;;;;;;;4.43;2.17;;;;;;;;;;5036083;28;20675;-74
2023/06/28 08:26:56;;;;;;;3.97;2.00;;;;;;;;;;5052642;28;20210;-74
2023/06/28 08:29:22;;;;;;;4.20;2.10;;;;;;;;;;5051756;28;20178;-74
2023/06/28 08:31:49;;;;;;;3.73;2.00;;;;;;;;;;5034355;28;20189;-74
2023/06/28 08:34:18;;;;;;;4.10;2.00;;;;;;;;;;5042337;28;20180;-74
2023/06/28 08:36:44;;;;;;;4.50;2.03;;;;;;;;;;5034794;28;20186;-74
2023/06/28 08:39:10;;;;;;;4.87;2.13;;;;;;;;;;5052056;28;20704;-73
2023/06/28 08:41:37;;;;;;;5.40;2.43;;;;;;;;;;5052471;28;20192;-74
2023/06/28 08:44:05;;;;;;;3.20;2.00;;;;;;;;;;5052368;28;20178;-74
2023/06/28 08:46:31;;;;;;;5.87;2.37;;;;;;;;;;5034489;28;20271;-74
2023/06/28 08:48:58;;;;;;;4.37;2.30;;;;;;;;;;5051671;28;20182;-74
2023/06/28 08:51:25;;;;;;;3.37;2.43;;;;;;;;;;5051849;28;20273;-74
2023/06/28 08:53:52;;;;;;;4.53;2.57;;;;;;;;;;5049119;28;20529;-74
2023/06/28 08:56:18;;;;;;;4.07;1.97;;;;;;;;;;5051601;28;20229;-74
2023/06/28 08:58:48;;;;;;;2.90;2.03;;;;;;;;;;5051788;28;20186;-74
2023/06/28 09:01:15;;;;;;;6.57;2.30;;;;;;;;;;5051575;28;20184;-74
2023/06/28 09:03:42;;;;;;;5.57;2.23;;;;;;;;;;5038809;28;20260;-76
2023/06/28 09:06:08;;;;;;;4.17;2.27;;;;;;;;;;5016848;28;20233;-75
2023/06/28 09:08:34;;;;;;;3.20;2.13;;;;;;;;;;5051081;28;20182;-75
2023/06/28 09:11:02;;;;;;;5.47;2.30;;;;;;;;;;5039882;28;20204;-73
2023/06/28 09:13:29;;;;;;;3.60;2.10;;;;;;;;;;5051918;28;20201;-74
2023/06/28 09:15:56;;;;;;;3.67;2.10;;;;;;;;;;5041550;28;20615;-74
2023/06/28 09:18:22;;;;;;;5.00;2.27;;;;;;;;;;5051396;28;20591;-75
2023/06/28 09:20:55;;;;;;;4.70;2.10;;;;;;;;;;5051601;28;20169;-75
2023/06/28 09:23:28;;;;;;;7.20;2.50;;;;;;;;;;5050677;28;20350;-74
2023/06/28 09:25:54;;;;;;;3.60;1.70;;;;;;;;;;5046582;28;20240;-74
2023/06/28 09:28:22;;;;;;;4.60;2.43;;;;;;;;;;5032807;28;20194;-75
2023/06/28 09:30:55;;;;;;;3.27;2.10;;;;;;;;;;5050760;28;20182;-75
2023/06/28 09:33:22;;;;;;;5.20;2.17;;;;;;;;;;5051722;28;20181;-75
2023/06/28 09:35:48;;;;;;;6.10;2.07;;;;;;;;;;5050296;28;20304;-76
2023/06/28 09:38:14;;;;;;;5.23;2.20;;;;;;;;;;5033929;28;20216;-76
2023/06/28 09:40:40;;;;;;;4.60;1.90;;;;;;;;;;5049925;28;20266;-76
2023/06/28 09:43:06;;;;;;;3.90;2.07;;;;;;;;;;5029150;28;20194;-74
2023/06/28 09:45:36;;;;;;;2.77;1.90;;;;;;;;;;5011791;28;20217;-75
2023/06/28 09:48:05;;;;;;;2.87;1.87;;;;;;;;;;5046541;28;20218;-74
2023/06/28 09:50:38;;;;;;;4.00;2.10;;;;;;;;;;5044552;28;20177;-76
2023/06/28 09:53:09;;;;;;;4.00;2.10;;;;;;;;;;5025582;28;20190;-75
2023/06/28 09:55:39;;;;;;;2.50;1.90;;;;;;;;;;5044666;28;20206;-76
2023/06/28 09:58:12;;;;;;;4.10;2.00;;;;;;;;;;5043779;28;20185;-75
2023/06/28 10:00:39;;;;;;;4.13;2.10;;;;;;;;;;5044900;28;20194;-76
2023/06/28 10:03:07;;;;;;;2.83;1.80;;;;;;;;;;5044517;28;20220;-75
2023/06/28 10:05:34;;;;;;;6.23;2.20;;;;;;;;;;5044417;28;20240;-76
2023/06/28 10:08:01;;;;;;;3.40;2.10;;;;;;;;;;5041979;28;20293;-76
2023/06/28 10:10:27;;;;;;;3.73;2.13;;;;;;;;;;5025849;28;20382;-75
2023/06/28 10:12:56;;;;;;;4.30;2.30;;;;;;;;;;5043136;28;20196;-75
2023/06/28 10:15:22;;;;;;;3.93;2.03;;;;;;;;;;5040274;28;20202;-76
2023/06/28 10:17:50;;;;;;;2.53;1.70;;;;;;;;;;5043370;28;20243;-76
2023/06/28 10:20:17;;;;;;;4.30;1.93;;;;;;;;;;5043173;28;20742;-76
2023/06/28 10:22:44;;;;;;;4.50;2.27;;;;;;;;;;5026695;28;20275;-75
2023/06/28 10:25:11;;;;;;;5.10;2.20;;;;;;;;;;5044494;28;20206;-76
2023/06/28 10:27:37;;;;;;;4.93;2.13;;;;;;;;;;5043453;28;20215;-77
2023/06/28 10:30:04;;;;;;;4.93;2.10;;;;;;;;;;5036072;28;20182;-75
2023/06/28 10:32:30;;;;;;;5.27;2.10;;;;;;;;;;5045696;28;20263;-77
2023/06/28 10:34:59;;;;;;;4.50;2.50;;;;;;;;;;5027872;28;20212;-77
2023/06/28 10:37:25;;;;;;;4.90;2.50;;;;;;;;;;5018658;28;20225;-77
2023/06/28 10:39:53;;;;;;;3.90;2.30;;;;;;;;;;5046474;28;20206;-77
2023/06/28 10:42:19;;;;;;;4.33;2.40;;;;;;;;;;5045370;28;20218;-77
2023/06/28 10:44:52;;;;;;;4.67;1.87;;;;;;;;;;5046669;28;20288;-78
2023/06/28 10:47:18;;;;;;;4.03;2.20;;;;;;;;;;5046382;28;20566;-75
2023/06/28 10:50:05;;;;;;;3.67;2.33;;;;;;;;;;5046466;28;20186;-77
2023/06/28 10:52:31;;;;;;;3.80;2.27;;;;;;;;;;5042650;28;20206;-76
2023/06/28 10:54:57;;;;;;;5.53;2.20;;;;;;;;;;5045741;28;20719;-77
2023/06/28 10:57:41;;;;;;;4.33;2.00;;;;;;;;;;5047156;28;20197;-77
2023/06/28 11:00:09;;;;;;;5.13;2.40;;;;;;;;;;5047597;28;20316;-78
2023/06/28 11:02:55;;;;;;;3.30;2.10;;;;;;;;;;5046495;28;20193;-78
2023/06/28 11:05:53;;;;;;;4.07;2.40;;;;;;;;;;5047643;28;20584;-79
2023/06/28 11:08:20;;;;;;;6.03;2.20;;;;;;;;;;5038662;28;20216;-77
2023/06/28 11:10:54;;;;;;;4.47;2.40;;;;;;;;;;5046829;28;20191;-77
2023/06/28 11:13:39;;;;;;;3.87;2.10;;;;;;;;;;5048454;28;20317;-77
2023/06/28 11:16:18;;;;;;;5.07;2.20;;;;;;;;;;5045585;28;20201;-77
2023/06/28 11:18:44;;;;;;;4.03;2.17;;;;;;;;;;5046207;28;20177;-77
2023/06/28 11:21:15;;;;;;;6.60;2.60;;;;;;;;;;5047249;28;20185;-77
2023/06/28 11:23:42;;;;;;;4.73;2.13;;;;;;;;;;5046720;28;20202;-77
2023/06/28 11:26:18;;;;;;;3.93;2.10;;;;;;;;;;5048010;28;20214;-77
2023/06/28 11:29:05;;;;;;;5.00;2.43;;;;;;;;;;5046691;28;20331;-77
2023/06/28 11:31:39;;;;;;;4.13;2.40;;;;;;;;;;5023698;28;20200;-77
2023/06/28 11:34:09;;;;;;;2.87;2.10;;;;;;;;;;5048092;28;20191;-77
2023/06/28 11:36:36;;;;;;;3.57;2.30;;;;;;;;;;5046908;28;20296;-77
2023/06/28 11:39:03;;;;;;;3.43;2.30;;;;;;;;;;5030256;28;20189;-77
2023/06/28 11:41:34;;;;;;;3.43;2.10;;;;;;;;;;5047698;28;20189;-77
2023/06/28 11:44:03;;;;;;;5.17;2.30;;;;;;;;;;5031247;28;20249;-77
2023/06/28 11:46:29;;;;;;;5.03;2.33;;;;;;;;;;5037273;28;20247;-77
2023/06/28 11:48:57;;;;;;;6.13;2.50;;;;;;;;;;5032481;28;20196;-78
2023/06/28 11:51:24;;;;;;;4.47;2.27;;;;;;;;;;5040139;28;20262;-78
2023/06/28 11:53:50;;;;;;;4.87;2.47;;;;;;;;;;5050816;28;20197;-78
2023/06/28 11:56:16;;;;;;;5.97;2.40;;;;;;;;;;5034849;28;21566;-78
2023/06/28 11:58:42;;;;;;;3.87;2.20;;;;;;;;;;5034672;28;20735;-79
2023/06/28 12:01:19;;;;;;;4.70;2.33;;;;;;;;;;5052629;28;20553;-78
2023/06/28 12:03:45;;;;;;;4.03;1.97;;;;;;;;;;5052435;28;20641;-78
2023/06/28 12:06:11;;;;;;;6.73;2.20;;;;;;;;;;5050736;28;20287;-79
2023/06/28 12:08:38;;;;;;;5.17;2.20;;;;;;;;;;5052798;28;20222;-79
2023/06/28 12:11:08;;;;;;;3.57;2.03;;;;;;;;;;5050911;28;20424;-79
2023/06/28 12:13:34;;;;;;;6.27;2.17;;;;;;;;;;5033456;28;20244;-77
2023/06/28 12:16:21;;;;;;;4.57;2.20;;;;;;;;;;5050360;28;20238;-77
2023/06/28 12:18:58;;;;;;;7.53;2.30;;;;;;;;;;5051369;28;20185;-79
2023/06/28 12:21:25;;;;;;;5.93;2.30;;;;;;;;;;5049809;28;20209;-79
2023/06/28 12:23:51;;;;;;;4.40;2.30;;;;;;;;;;5051628;28;20190;-78
2023/06/28 12:26:17;;;;;;;4.97;2.00;;;;;;;;;;5051681;28;20637;-78
2023/06/28 12:28:48;;;;;;;2.77;1.90;;;;;;;;;;5032792;28;20648;-79
2023/06/28 12:31:15;;;;;;;5.00;2.17;;;;;;;;;;5041545;28;20182;-78
2023/06/28 12:33:41;;;;;;;4.43;2.40;;;;;;;;;;5049612;28;20181;-78
2023/06/28 12:36:11;;;;;;;3.57;2.47;;;;;;;;;;5053105;28;20210;-78
2023/06/28 12:38:43;;;;;;;3.07;1.90;;;;;;;;;;5024862;28;20287;-76
2023/06/28 12:41:09;;;;;;;5.20;2.40;;;;;;;;;;5053990;28;20197;-79
2023/06/28 12:43:35;;;;;;;4.83;2.27;;;;;;;;;;5043210;28;20204;-79
2023/06/28 12:46:03;;;;;;;8.20;2.70;;;;;;;;;;5052598;28;20307;-78
2023/06/28 12:48:30;;;;;;;3.40;2.30;;;;;;;;;;5052265;28;20173;-76
2023/06/28 12:50:56;;;;;;;3.33;2.10;;;;;;;;;;5033959;28;20189;-78
2023/06/28 12:53:22;;;;;;;3.03;2.33;;;;;;;;;;5052399;28;20181;-77
2023/06/28 12:55:48;;;;;;;4.03;2.50;;;;;;;;;;5062219;28;20218;-76
2023/06/28 12:58:14;;;;;;;5.30;2.53;;;;;;;;;;5028233;28;20206;-77
2023/06/28 13:00:44;;;;;;;2.87;2.30;;;;;;;;;;5034108;28;20550;-78
2023/06/28 13:03:12;;;;;;;4.17;2.27;;;;;;;;;;5035980;28;20194;-78
2023/06/28 13:05:39;;;;;;;2.90;2.10;;;;;;;;;;5051438;28;20201;-77
2023/06/28 13:08:05;;;;;;;5.83;2.10;;;;;;;;;;5034334;28;20271;-77
2023/06/28 13:10:31;;;;;;;3.03;2.30;;;;;;;;;;5051503;28;20583;-79
2023/06/28 13:12:57;;;;;;;3.70;2.40;;;;;;;;;;5049822;28;20192;-76
2023/06/28 13:15:23;;;;;;;6.83;2.20;;;;;;;;;;5050744;28;20198;-78
2023/06/28 13:17:50;;;;;;;7.80;2.40;;;;;;;;;;5048347;28;20182;-77
2023/06/28 13:20:16;;;;;;;4.63;2.50;;;;;;;;;;5030266;28;20721;-77
2023/06/28 13:22:42;;;;;;;5.50;2.60;;;;;;;;;;5048962;28;20182;-77
2023/06/28 13:25:08;;;;;;;4.17;2.50;;;;;;;;;;5049151;28;20606;-75
2023/06/28 13:27:34;;;;;;;7.13;2.50;;;;;;;;;;5030349;28;20760;-75
2023/06/28 13:30:00;;;;;;;4.33;2.60;;;;;;;;;;5031499;28;20178;-76
2023/06/28 13:32:27;;;;;;;6.07;2.60;;;;;;;;;;5012737;28;20224;-77
2023/06/28 13:34:53;;;;;;;4.37;2.50;;;;;;;;;;5032075;28;20209;-75
2023/06/28 13:37:19;;;;;;;4.10;2.27;;;;;;;;;;5022106;28;20204;-75
2023/06/28 13:39:45;;;;;;;4.93;2.63;;;;;;;;;;5047350;28;20181;-75
2023/06/28 13:42:11;;;;;;;3.80;2.20;;;;;;;;;;5048018;28;20189;-77
2023/06/28 13:44:38;;;;;;;4.23;2.53;;;;;;;;;;5030846;28;20228;-77
2023/06/28 13:47:04;;;;;;;3.10;2.40;;;;;;;;;;5045063;28;20213;-78
2023/06/28 13:49:32;;;;;;;3.40;2.63;;;;;;;;;;5047133;28;20200;-79
2023/06/28 13:51:58;;;;;;;5.80;2.40;;;;;;;;;;5046500;28;20210;-78
2023/06/28 13:54:24;;;;;;;6.03;2.40;;;;;;;;;;5045521;28;20280;-76
2023/06/28 13:56:50;;;;;;;4.77;2.70;;;;;;;;;;5041852;28;20995;-76
2023/06/28 13:59:16;;;;;;;5.00;2.37;;;;;;;;;;5041929;28;20198;-77
2023/06/28 14:01:43;;;;;;;4.30;2.73;;;;;;;;;;5043592;28;20204;-76
2023/06/28 14:04:10;;;;;;;5.23;2.30;;;;;;;;;;5041025;28;20289;-77
2023/06/28 14:06:36;;;;;;;3.37;2.20;;;;;;;;;;5043695;28;20308;-75
2023/06/28 14:09:02;;;;;;;4.83;2.57;;;;;;;;;;5045573;28;20204;-75
2023/06/28 14:11:28;;;;;;;4.33;2.60;;;;;;;;;;5043465;28;20296;-75
2023/06/28 14:13:54;;;;;;;4.60;2.60;;;;;;;;;;5045599;28;20348;-75
2023/06/28 14:16:20;;;;;;;5.93;2.60;;;;;;;;;;5039723;28;20209;-75
2023/06/28 14:18:47;;;;;;;4.17;2.17;;;;;;;;;;5040805;28;20186;-74
2023/06/28 14:21:13;;;;;;;4.60;2.57;;;;;;;;;;5035223;28;20181;-75
2023/06/28 14:23:39;;;;;;;5.43;2.67;;;;;;;;;;5043495;28;20220;-76
2023/06/28 14:26:05;;;;;;;3.37;2.43;;;;;;;;;;5042769;28;20210;-76
2023/06/28 14:28:31;;;;;;;5.77;2.67;;;;;;;;;;5045772;28;20191;-75
2023/06/28 14:30:57;;;;;;;3.17;2.00;;;;;;;;;;5043810;28;20189;-76
2023/06/28 14:33:23;;;;;;;5.13;2.30;;;;;;;;;;5044862;28;20262;-76
2023/06/28 14:35:50;;;;;;;4.60;2.40;;;;;;;;;;5044749;28;20626;-75
2023/06/28 14:38:19;;;;;;;3.87;2.40;;;;;;;;;;5045007;28;20188;-76
2023/06/28 14:40:46;;;;;;;3.40;2.40;;;;;;;;;;5027382;28;20924;-76
2023/06/28 14:43:12;;;;;;;3.73;2.10;;;;;;;;;;5043196;28;20184;-76